Madrid, Iowa
Current Conditions -  °F | °C
As of 4:35 AM on Monday 22 Dec 2014 (Local Time) from KBNW Reporting Station
Haze Haze  
Wind Chill: 31°   Ceiling: 400
Heat Index: 39°   Visibility: 4mi
Dew Point: 39°   Wind: 14mph
Humidity: 100%   Direction: 160°SSE
Pressure: 29.64"   Gusts: NA
Location:  41.88°N, 93.82°W
Report Text: KBNW 221035Z AUTO 16012KT 4SM BR OVC004 04/04 A2964 RMK AO2
Loading
Personal Weather Stations






























Interactive Weather Map New forecast layout! Learn more

10-Day Weather Forecast

Advertisements
Track Severe Weather on mobile